Weather History for Grafton, ND

Change the Weather History Date:

Thursday, June 27, 2013

  Actual Average Record
Temperature  
Mean Temperature 72 °F -  
Max Temperature 82 °F 80 °F 99 °F (1961)
Min Temperature 62 °F 54 °F 45 °F (1968)
Cooling Degree Days 7    
Growing Degree Days 22 (Base 50)    
Moisture  
Dew Point 60 °F    
Average Humidity 69    
Maximum Humidity 100    
Minimum Humidity 39    
Precipitation  
Precipitation 0.00 in - - ()
Sea Level Pressure  
Sea Level Pressure 29.80 in    
Wind  
Wind Speed 13 mph (WNW)    
Max Wind Speed 32 mph    
Max Gust Speed 47 mph    
Visibility 10 miles    
Events Rain , Thunderstorm    
Averages and records for this station are not official NWS values.
T = Trace of Precipitation, MM = Missing Value Source: NWS Daily Summary

Daily Weather History Graph

Daily Weather History Graph

Search for Another Location

Airport:

Trip Planner

Search our weather history database for the weather conditions in past years. The results will help you decide how hot, cold, wet, or windy it might be!

Date:

Astronomy

Jun. 27, 2013 Rise Set
Actual Time 5:30 AM CDT 9:34 PM CDT
Civil Twilight 4:48 AM CDT 10:16 PM CDT
Nautical Twilight 3:49 AM CDT 11:15 PM CDT
Astronomical Twilight 2:01 AM CDT 1:02 AM CDT
Moon No Moon Rise 10:58 AM CDT (6/27)
Length of Visible Light 17h 28m
Length of Day
16h 04m
Waning Gibbous, 76% of the Moon is Illuminated
Jun 27
Waning Gibbous
Jun 29
Last Quarter
Jul 8
New
Jul 15
First Quarter
Jul 22
Full

Hourly Weather History & Observations

Time (CDT) Temp. Heat Index Dew Point Humidity Pressure Visibility Wind Dir Wind Speed Gust Speed Precip Events Conditions
12:15 AM 62.6 °F - 62.6 °F 100% 29.74 in 10.0 mi SW 5.8 mph - N/A   Clear
12:35 AM 64.4 °F - 64.4 °F 100% 29.74 in 10.0 mi SW 8.1 mph - N/A   Clear
1:15 AM 64.4 °F - 62.6 °F 94% 29.73 in 10.0 mi WSW 6.9 mph - N/A   Clear
1:35 AM 64.4 °F - 62.6 °F 94% 29.73 in 10.0 mi WSW 8.1 mph - N/A   Clear
1:55 AM 64.4 °F - 62.6 °F 94% 29.73 in 10.0 mi WSW 9.2 mph - N/A   Clear
2:15 AM 64.4 °F - 62.6 °F 94% 29.73 in 10.0 mi WSW 8.1 mph - N/A   Clear
2:35 AM 64.4 °F - 62.6 °F 94% 29.73 in 10.0 mi West 8.1 mph - N/A   Clear
2:55 AM 66.2 °F - 62.6 °F 88% 29.73 in 10.0 mi West 11.5 mph - N/A   Clear
3:15 AM 68.0 °F - 60.8 °F 78% 29.74 in 10.0 mi West 13.8 mph - N/A   Clear
3:35 AM 68.0 °F - 60.8 °F 78% 29.74 in 10.0 mi West 11.5 mph - N/A   Clear
3:55 AM 68.0 °F - 60.8 °F 78% 29.74 in 10.0 mi West 13.8 mph - N/A   Clear
4:15 AM 66.2 °F - 60.8 °F 83% 29.74 in 10.0 mi West 10.4 mph - N/A   Clear
4:35 AM 66.2 °F - 60.8 °F 83% 29.74 in 10.0 mi West 12.7 mph - N/A   Clear
4:55 AM 66.2 °F - 60.8 °F 83% 29.76 in 10.0 mi WNW 13.8 mph - N/A   Clear
5:15 AM 66.2 °F - 60.8 °F 83% 29.76 in 10.0 mi West 15.0 mph 19.6 mph N/A   Clear
5:35 AM 66.2 °F - 60.8 °F 83% 29.76 in 10.0 mi West 11.5 mph - N/A   Clear
5:55 AM 66.2 °F - 60.8 °F 83% 29.77 in 10.0 mi West 13.8 mph - N/A   Clear
6:15 AM 66.2 °F - 60.8 °F 83% 29.77 in 10.0 mi WNW 12.7 mph - N/A   Clear
6:35 AM 66.2 °F - 59.0 °F 78% 29.78 in 10.0 mi WNW 15.0 mph - N/A   Clear
6:55 AM 66.2 °F - 59.0 °F 78% 29.78 in 10.0 mi WNW 12.7 mph - N/A   Clear
7:15 AM 66.2 °F - 59.0 °F 78% 29.78 in 10.0 mi WNW 12.7 mph - N/A   Clear
7:35 AM 68.0 °F - 59.0 °F 73% 29.79 in 10.0 mi WNW 16.1 mph 21.9 mph N/A   Clear
8:15 AM 68.0 °F - 59.0 °F 73% 29.80 in 10.0 mi WNW 16.1 mph 20.7 mph N/A   Clear
8:35 AM 69.8 °F - 60.8 °F 73% 29.80 in 10.0 mi WNW 13.8 mph - N/A   Clear
8:55 AM 71.6 °F - 62.6 °F 73% 29.80 in 10.0 mi NW 16.1 mph 25.3 mph N/A   Clear
9:15 AM 71.6 °F - 62.6 °F 73% 29.81 in 10.0 mi WNW 19.6 mph - N/A   Clear
9:35 AM 71.6 °F - 62.6 °F 73% 29.81 in 10.0 mi NW 15.0 mph 23.0 mph N/A   Clear
9:55 AM 73.4 °F - 62.6 °F 69% 29.80 in 10.0 mi WNW 12.7 mph - N/A   Clear
10:15 AM 73.4 °F - 62.6 °F 69% 29.80 in 10.0 mi WNW 11.5 mph - N/A   Clear
10:35 AM 75.2 °F - 62.6 °F 65% 29.80 in 10.0 mi WNW 16.1 mph - N/A   Clear
10:55 AM 75.2 °F - 62.6 °F 65% 29.80 in 10.0 mi WNW 13.8 mph 21.9 mph N/A   Clear
11:15 AM 77.0 °F - 62.6 °F 61% 29.80 in 10.0 mi WNW 16.1 mph 23.0 mph N/A   Clear
11:35 AM 77.0 °F - 60.8 °F 57% 29.80 in 10.0 mi WNW 16.1 mph 23.0 mph N/A   Clear
11:55 AM 77.0 °F - 59.0 °F 54% 29.80 in 10.0 mi WNW 18.4 mph 26.5 mph N/A   Clear
12:15 PM 78.8 °F - 60.8 °F 54% 29.80 in 10.0 mi WNW 18.4 mph 25.3 mph N/A   Clear
12:35 PM 78.8 °F - 59.0 °F 51% 29.80 in 10.0 mi WNW 19.6 mph 28.8 mph N/A   Clear
12:55 PM 80.6 °F 81.1 °F 59.0 °F 48% 29.80 in 10.0 mi WNW 19.6 mph 28.8 mph N/A   Partly Cloudy
1:15 PM 80.6 °F 81.1 °F 59.0 °F 48% 29.80 in 10.0 mi NW 17.3 mph 24.2 mph N/A   Partly Cloudy
1:35 PM 80.6 °F 81.1 °F 59.0 °F 48% 29.79 in 10.0 mi West 19.6 mph 28.8 mph N/A   Clear
1:55 PM 80.6 °F 81.1 °F 59.0 °F 48% 29.79 in 10.0 mi WNW 20.7 mph 33.4 mph N/A   Clear
2:15 PM 82.4 °F 82.0 °F 57.2 °F 42% 29.79 in 10.0 mi WNW 17.3 mph 26.5 mph N/A   Clear
2:35 PM 82.4 °F 82.5 °F 59.0 °F 45% 29.78 in 10.0 mi West 25.3 mph 33.4 mph N/A   Partly Cloudy
2:55 PM 82.4 °F 82.0 °F 57.2 °F 42% 29.79 in 10.0 mi WNW 26.5 mph 33.4 mph N/A   Scattered Clouds
3:15 PM 82.4 °F 82.5 °F 59.0 °F 45% 29.79 in 10.0 mi NW 23.0 mph 29.9 mph N/A   Mostly Cloudy
3:35 PM 82.4 °F 82.5 °F 59.0 °F 45% 29.78 in 10.0 mi WNW 21.9 mph 28.8 mph N/A   Scattered Clouds
3:55 PM 82.4 °F 82.0 °F 57.2 °F 42% 29.79 in 10.0 mi WNW 26.5 mph 41.4 mph N/A   Partly Cloudy
4:15 PM 82.4 °F 82.0 °F 57.2 °F 42% 29.79 in 10.0 mi WNW 26.5 mph 36.8 mph N/A   Scattered Clouds
4:35 PM 82.4 °F 81.7 °F 55.4 °F 39% 29.79 in 10.0 mi NW 27.6 mph 34.5 mph N/A   Partly Cloudy
4:55 PM 82.4 °F 81.7 °F 55.4 °F 39% 29.79 in 10.0 mi NW 20.7 mph 31.1 mph N/A   Clear
5:15 PM 80.6 °F 80.5 °F 55.4 °F 42% 29.79 in 10.0 mi NW 25.3 mph 34.5 mph N/A   Clear
5:35 PM 80.6 °F 80.8 °F 57.2 °F 45% 29.80 in 10.0 mi NW 26.5 mph 32.2 mph N/A   Partly Cloudy
5:55 PM 80.6 °F 81.1 °F 59.0 °F 48% 29.82 in 10.0 mi NNW 32.2 mph 41.4 mph N/A   Scattered Clouds
6:15 PM 73.4 °F - 55.4 °F 53% 29.83 in 10.0 mi NNW 18.4 mph 38.0 mph N/A   Scattered Clouds
6:35 PM 75.2 °F - 57.2 °F 53% 29.82 in 10.0 mi NNW 13.8 mph 20.7 mph N/A   Partly Cloudy
6:55 PM 77.0 °F - 59.0 °F 54% 29.83 in 10.0 mi NNW 11.5 mph - N/A   Clear
7:15 PM 66.2 °F - 59.0 °F 78% 29.85 in 1.2 mi North 17.3 mph 47.2 mph N/A Rain , Thunderstorm Light Rain
7:35 PM 68.0 °F - 60.8 °F 78% 29.85 in 10.0 mi North 11.5 mph - N/A   Mostly Cloudy
7:55 PM 69.8 °F - 62.6 °F 78% 29.84 in 10.0 mi NNW 8.1 mph - N/A   Scattered Clouds
8:15 PM 69.8 °F - 60.8 °F 73% 29.85 in 10.0 mi NW 8.1 mph - N/A   Clear
8:35 PM 71.6 °F - 60.8 °F 69% 29.85 in 10.0 mi WNW 9.2 mph - N/A   Clear
8:55 PM 69.8 °F - 59.0 °F 68% 29.85 in 10.0 mi NNW 8.1 mph - N/A   Clear
9:15 PM 68.0 °F - 59.0 °F 73% 29.85 in 10.0 mi WNW 5.8 mph - N/A   Clear
9:35 PM 68.0 °F - 60.8 °F 78% 29.85 in 10.0 mi NW 6.9 mph - N/A   Clear
9:55 PM 68.0 °F - 60.8 °F 78% 29.85 in 10.0 mi NW 8.1 mph - N/A   Scattered Clouds
10:15 PM 69.8 °F - 60.8 °F 73% 29.85 in 10.0 mi NW 10.4 mph 17.3 mph N/A   Scattered Clouds
10:35 PM 68.0 °F - 62.6 °F 83% 29.85 in 10.0 mi NNW 5.8 mph - N/A   Partly Cloudy
10:55 PM 66.2 °F - 60.8 °F 83% 29.85 in 10.0 mi NW 9.2 mph - N/A   Clear
11:15 PM 68.0 °F - 59.0 °F 73% 29.86 in 10.0 mi NW 10.4 mph - N/A   Clear
11:35 PM 66.2 °F - 59.0 °F 78% 29.86 in 10.0 mi NW 10.4 mph - N/A   Clear
11:55 PM 66.2 °F - 59.0 °F 78% 29.86 in 10.0 mi NW 11.5 mph - N/A   Clear